createdAt,value
2022-08-17T00:00:17.307Z,5.40
2022-08-17T00:05:45.814Z,5.70
2022-08-17T00:10:48.764Z,5.97
2022-08-17T00:15:50.611Z,5.40
2022-08-17T00:20:53.812Z,5.80
2022-08-17T00:25:56.068Z,5.50
2022-08-17T00:30:59.284Z,5.97
2022-08-17T00:36:01.997Z,5.87
2022-08-17T00:41:07.856Z,5.67
2022-08-17T00:46:12.091Z,5.87
2022-08-17T00:51:17.438Z,6.00
2022-08-17T00:56:33.270Z,6.17
2022-08-17T01:01:36.335Z,5.70
2022-08-17T01:06:38.608Z,6.10
2022-08-17T01:11:40.649Z,5.30
2022-08-17T01:16:42.917Z,5.50
2022-08-17T01:21:55.592Z,6.40
2022-08-17T01:26:57.669Z,6.40
2022-08-17T01:32:03.731Z,5.97
2022-08-17T01:37:05.759Z,5.73
2022-08-17T01:42:11.024Z,5.90
2022-08-17T01:47:15.819Z,6.00
2022-08-17T01:52:17.968Z,5.87
2022-08-17T01:57:20.293Z,6.17
2022-08-17T02:02:31.379Z,5.47
2022-08-17T02:07:59.892Z,6.10
2022-08-17T02:12:58.921Z,6.20
2022-08-17T02:18:02.352Z,5.67
2022-08-17T02:23:05.099Z,5.90
2022-08-17T02:28:09.952Z,5.93
2022-08-17T02:33:11.946Z,5.63
2022-08-17T02:38:14.200Z,6.40
2022-08-17T02:43:16.410Z,6.07
2022-08-17T02:48:30.409Z,6.63
2022-08-17T02:53:35.613Z,5.90
2022-08-17T02:58:38.660Z,6.70
2022-08-17T03:03:41.438Z,6.60
2022-08-17T03:08:43.308Z,6.43
2022-08-17T03:13:45.859Z,6.83
2022-08-17T03:18:48.541Z,6.90
2022-08-17T03:23:54.474Z,7.00
2022-08-17T03:28:57.080Z,7.53
2022-08-17T03:33:59.132Z,6.83
2022-08-17T03:39:01.747Z,7.27
2022-08-17T03:44:04.458Z,7.33
2022-08-17T03:49:26.826Z,7.80
2022-08-17T03:54:47.933Z,6.40
2022-08-17T03:59:50.280Z,6.90
2022-08-17T04:04:52.723Z,7.37
2022-08-17T04:09:55.121Z,7.10
2022-08-17T04:14:57.525Z,6.10
2022-08-17T04:20:00.063Z,6.20
2022-08-17T04:25:25.459Z,7.50
2022-08-17T04:30:32.063Z,8.20
2022-08-17T04:35:38.316Z,6.77
2022-08-17T04:40:59.118Z,6.83
2022-08-17T04:46:07.076Z,6.80
2022-08-17T04:51:15.852Z,6.47
2022-08-17T04:56:19.134Z,6.80
2022-08-17T05:01:23.342Z,7.07
2022-08-17T05:06:27.884Z,6.67
2022-08-17T05:11:30.475Z,6.80
2022-08-17T05:16:32.774Z,7.00
2022-08-17T05:21:35.044Z,6.30
2022-08-17T05:26:36.913Z,6.33
2022-08-17T05:31:40.139Z,6.27
2022-08-17T05:36:44.473Z,6.30
2022-08-17T05:41:47.992Z,5.53
2022-08-17T05:46:54.091Z,6.97
2022-08-17T05:52:01.906Z,6.70
2022-08-17T05:57:07.162Z,6.53
2022-08-17T06:02:19.192Z,5.83
2022-08-17T06:07:24.472Z,5.80
2022-08-17T06:12:43.650Z,5.73
2022-08-17T06:17:46.075Z,4.90
2022-08-17T06:22:57.495Z,5.23
2022-08-17T06:28:08.269Z,5.10
2022-08-17T06:33:14.676Z,5.10
2022-08-17T06:38:37.746Z,5.33
2022-08-17T06:43:51.332Z,5.23
2022-08-17T06:49:13.797Z,6.03
2022-08-17T06:54:57.651Z,5.33
2022-08-17T07:00:00.137Z,5.30
2022-08-17T07:05:02.613Z,5.47
2022-08-17T07:10:05.848Z,5.20
2022-08-17T07:15:21.635Z,5.20
2022-08-17T07:20:23.575Z,5.10
2022-08-17T07:25:25.877Z,5.30
2022-08-17T07:30:46.752Z,5.07
2022-08-17T07:35:50.077Z,5.17
2022-08-17T07:40:57.517Z,4.80
2022-08-17T07:46:18.327Z,4.73
2022-08-17T07:51:25.170Z,5.70
2022-08-17T07:56:44.159Z,5.07
2022-08-17T08:01:58.605Z,4.70
2022-08-17T08:07:02.430Z,5.40
2022-08-17T08:12:34.312Z,4.80
2022-08-17T08:17:46.526Z,4.70
2022-08-17T08:23:00.793Z,3.93
2022-08-17T08:28:27.218Z,5.00
2022-08-17T08:33:49.715Z,4.80
2022-08-17T08:39:13.024Z,4.80
2022-08-17T08:44:23.848Z,5.10
2022-08-17T08:50:42.853Z,4.53
2022-08-17T08:55:50.901Z,4.70
2022-08-17T09:00:56.166Z,5.63
2022-08-17T09:06:32.479Z,5.00
2022-08-17T09:12:04.042Z,4.80
2022-08-17T09:17:08.782Z,5.80
2022-08-17T09:22:33.678Z,5.43
2022-08-17T09:27:40.352Z,5.07
2022-08-17T09:32:55.215Z,4.80
2022-08-17T09:37:57.568Z,5.10
2022-08-17T09:43:18.621Z,4.67
2022-08-17T09:48:27.582Z,5.17
2022-08-17T09:53:32.009Z,5.00
2022-08-17T09:58:44.022Z,4.47
2022-08-17T10:03:55.761Z,5.13
2022-08-17T10:09:09.830Z,4.23
2022-08-17T10:14:35.943Z,4.30
2022-08-17T10:19:45.413Z,4.63
2022-08-17T10:25:23.669Z,4.07
2022-08-17T10:30:33.280Z,3.97
2022-08-17T10:36:05.343Z,4.00
2022-08-17T10:41:17.211Z,4.07
2022-08-17T10:46:30.199Z,4.20
2022-08-17T10:51:38.048Z,4.43
2022-08-17T10:56:47.866Z,3.80
2022-08-17T11:01:50.083Z,4.27
2022-08-17T11:07:04.889Z,4.03
2022-08-17T11:12:17.502Z,4.03
2022-08-17T11:17:38.896Z,3.80
2022-08-17T11:22:51.416Z,4.30
2022-08-17T11:28:08.656Z,4.17
2022-08-17T11:33:29.116Z,4.10
2022-08-17T11:38:37.646Z,4.13
2022-08-17T11:43:58.342Z,4.10
2022-08-17T11:49:35.889Z,3.43
2022-08-17T11:54:46.933Z,3.50
2022-08-17T11:59:49.243Z,3.50
2022-08-17T12:05:14.266Z,3.20
2022-08-17T12:10:19.087Z,2.77
2022-08-17T12:15:39.503Z,3.50
2022-08-17T12:20:43.884Z,3.33
2022-08-17T12:25:50.651Z,3.03
2022-08-17T12:30:53.093Z,3.77
2022-08-17T12:36:03.665Z,3.60
2022-08-17T12:41:26.363Z,3.50
2022-08-17T12:46:30.260Z,3.30
2022-08-17T12:51:34.645Z,3.57
2022-08-17T12:56:37.217Z,3.30
2022-08-17T13:01:42.077Z,3.60
2022-08-17T13:06:51.742Z,3.43
2022-08-17T13:12:02.036Z,3.27
2022-08-17T13:17:11.087Z,3.70
2022-08-17T13:22:15.131Z,3.67
2022-08-17T13:27:20.420Z,3.43
2022-08-17T13:32:33.434Z,3.40
2022-08-17T13:37:36.851Z,3.67
2022-08-17T13:42:55.806Z,4.13
2022-08-17T13:48:14.121Z,3.60
2022-08-17T13:53:21.966Z,3.70
2022-08-17T13:58:28.766Z,3.40
2022-08-17T14:03:31.330Z,3.67
2022-08-17T14:08:33.630Z,3.70
2022-08-17T14:13:37.143Z,3.80
2022-08-17T14:18:56.253Z,4.00
2022-08-17T14:23:59.613Z,3.60
2022-08-17T14:29:01.739Z,3.70
2022-08-17T14:34:03.583Z,3.50
2022-08-17T14:39:05.628Z,4.03
2022-08-17T14:44:12.320Z,3.90
2022-08-17T14:49:15.959Z,4.10
2022-08-17T14:54:33.354Z,4.00
2022-08-17T14:59:36.381Z,3.60
2022-08-17T15:04:43.382Z,3.77
2022-08-17T15:09:47.472Z,4.07
2022-08-17T15:14:49.958Z,4.23
2022-08-17T15:19:52.212Z,4.13
2022-08-17T15:24:55.744Z,4.33
2022-08-17T15:29:58.342Z,4.50
2022-08-17T15:35:01.541Z,4.40
2022-08-17T15:40:05.055Z,4.70
2022-08-17T15:45:12.248Z,3.90
2022-08-17T15:50:14.153Z,3.90
2022-08-17T15:55:17.892Z,4.30
2022-08-17T16:00:28.333Z,4.60
2022-08-17T16:05:31.376Z,4.40
2022-08-17T16:10:35.562Z,4.57
2022-08-17T16:15:38.255Z,4.63
2022-08-17T16:20:40.509Z,5.10
2022-08-17T16:25:52.714Z,3.90
2022-08-17T16:30:55.901Z,4.37
2022-08-17T16:35:58.203Z,3.80
2022-08-17T16:41:00.461Z,5.23
2022-08-17T16:46:03.005Z,8.53
2022-08-17T16:51:04.932Z,5.37
2022-08-17T16:56:07.568Z,4.70
2022-08-17T17:01:09.902Z,3.53
2022-08-17T17:06:15.598Z,3.93
2022-08-17T17:11:34.862Z,4.20
2022-08-17T17:16:46.027Z,4.40
2022-08-17T17:22:01.634Z,4.63
2022-08-17T17:27:15.162Z,4.10
2022-08-17T17:32:25.418Z,4.10
2022-08-17T17:37:29.271Z,4.27
2022-08-17T17:42:32.480Z,3.90
2022-08-17T17:47:35.721Z,3.90
2022-08-17T17:53:02.141Z,3.60
2022-08-17T17:58:18.213Z,4.40
2022-08-17T18:03:32.451Z,4.20
2022-08-17T18:08:59.686Z,4.33
2022-08-17T18:14:42.145Z,4.30
2022-08-17T18:19:45.294Z,4.77
2022-08-17T18:24:55.957Z,5.10
2022-08-17T18:30:03.375Z,4.70
2022-08-17T18:35:16.286Z,5.03
2022-08-17T18:40:18.431Z,4.50
2022-08-17T18:45:35.894Z,4.50
2022-08-17T18:50:41.278Z,4.37
2022-08-17T18:55:43.140Z,4.57
2022-08-17T19:00:47.680Z,5.00
2022-08-17T19:06:31.313Z,4.20
2022-08-17T19:11:34.848Z,4.20
2022-08-17T19:16:55.631Z,4.37
2022-08-17T19:22:28.498Z,4.80
2022-08-17T19:27:49.151Z,4.40
2022-08-17T19:32:53.035Z,4.23
2022-08-17T19:38:15.479Z,4.37
2022-08-17T19:43:28.884Z,4.30
2022-08-17T19:48:51.419Z,4.93
2022-08-17T19:54:05.901Z,4.40
2022-08-17T19:59:27.313Z,4.43
2022-08-17T20:04:45.506Z,4.67
2022-08-17T20:09:56.402Z,4.20
2022-08-17T20:15:16.944Z,5.00
2022-08-17T20:20:24.069Z,4.70
2022-08-17T20:25:32.372Z,5.40
2022-08-17T20:30:37.608Z,5.10
2022-08-17T20:35:40.407Z,5.00
2022-08-17T20:40:54.319Z,4.70
2022-08-17T20:46:04.071Z,4.90
2022-08-17T20:51:18.222Z,4.37
2022-08-17T20:56:39.200Z,4.70
2022-08-17T21:01:41.185Z,4.07
2022-08-17T21:07:20.499Z,4.37
2022-08-17T21:12:42.828Z,4.27
2022-08-17T21:18:00.625Z,4.50
2022-08-17T21:23:27.052Z,4.00
2022-08-17T21:29:00.370Z,5.00
2022-08-17T21:34:23.647Z,5.10
2022-08-17T21:39:39.821Z,4.37
2022-08-17T21:44:52.272Z,4.90
2022-08-17T21:49:55.218Z,4.00
2022-08-17T21:55:00.243Z,4.70
2022-08-17T22:00:06.501Z,4.00
2022-08-17T22:05:10.662Z,4.50
2022-08-17T22:10:33.228Z,4.37
2022-08-17T22:15:39.967Z,4.80
2022-08-17T22:20:41.890Z,4.17
2022-08-17T22:26:04.804Z,4.70
2022-08-17T22:31:09.110Z,4.37
2022-08-17T22:36:29.454Z,4.70
2022-08-17T22:41:43.269Z,4.40
2022-08-17T22:46:53.319Z,4.80
2022-08-17T22:52:18.433Z,5.80
2022-08-17T22:57:41.979Z,5.13
2022-08-17T23:03:11.572Z,4.90
2022-08-17T23:08:14.556Z,5.33
2022-08-17T23:13:16.881Z,5.23
2022-08-17T23:18:18.817Z,5.70
2022-08-17T23:23:23.911Z,5.50
2022-08-17T23:28:25.863Z,5.20
2022-08-17T23:33:31.723Z,5.10
2022-08-17T23:38:33.535Z,5.60
2022-08-17T23:43:36.308Z,5.93
2022-08-17T23:48:38.688Z,5.50
2022-08-17T23:53:52.964Z,5.70
2022-08-17T23:58:55.910Z,5.23
